createdAt,value
2022-09-01T00:02:21.197Z,16.20
2022-09-01T00:04:49.129Z,16.20
2022-09-01T00:07:17.376Z,16.20
2022-09-01T00:09:45.313Z,16.20
2022-09-01T00:12:13.328Z,16.10
2022-09-01T00:14:42.585Z,16.10
2022-09-01T00:17:13.272Z,16.10
2022-09-01T00:19:41.273Z,16.10
2022-09-01T00:22:09.283Z,16.00
2022-09-01T00:24:37.409Z,16.00
2022-09-01T00:27:05.543Z,16.00
2022-09-01T00:29:33.834Z,15.90
2022-09-01T00:32:01.796Z,16.00
2022-09-01T00:34:32.051Z,15.90
2022-09-01T00:37:00.069Z,16.00
2022-09-01T00:39:28.021Z,16.00
2022-09-01T00:41:55.963Z,15.90
2022-09-01T00:44:26.814Z,15.90
2022-09-01T00:46:58.311Z,15.90
2022-09-01T00:49:35.189Z,15.90
2022-09-01T00:52:07.729Z,15.90
2022-09-01T00:54:39.998Z,15.90
2022-09-01T00:57:10.817Z,15.90
2022-09-01T00:59:44.585Z,15.80
2022-09-01T01:02:13.036Z,15.80
2022-09-01T01:04:44.041Z,15.80
2022-09-01T01:07:13.116Z,15.70
2022-09-01T01:09:44.548Z,15.70
2022-09-01T01:12:18.397Z,15.70
2022-09-01T01:14:50.303Z,15.70
2022-09-01T01:17:22.991Z,15.70
2022-09-01T01:20:11.636Z,15.60
2022-09-01T01:23:06.292Z,15.60
2022-09-01T01:25:39.190Z,15.60
2022-09-01T01:28:10.520Z,15.60
2022-09-01T01:30:41.810Z,15.60
2022-09-01T01:33:10.180Z,15.50
2022-09-01T01:35:40.072Z,15.60
2022-09-01T01:38:08.846Z,15.50
2022-09-01T01:40:39.542Z,15.50
2022-09-01T01:43:08.208Z,15.50
2022-09-01T01:45:36.655Z,15.50
2022-09-01T01:48:10.643Z,15.50
2022-09-01T01:50:38.965Z,15.40
2022-09-01T01:53:10.832Z,15.40
2022-09-01T01:55:41.892Z,15.40
2022-09-01T01:58:12.283Z,15.40
2022-09-01T02:00:42.839Z,15.40
2022-09-01T02:03:12.809Z,15.30
2022-09-01T02:05:41.492Z,15.30
2022-09-01T02:08:11.286Z,15.30
2022-09-01T02:10:45.125Z,15.30
2022-09-01T02:13:16.749Z,15.20
2022-09-01T02:15:47.620Z,15.20
2022-09-01T02:18:19.260Z,15.20
2022-09-01T02:20:49.333Z,15.20
2022-09-01T02:23:24.565Z,15.10
2022-09-01T02:26:15.569Z,15.10
2022-09-01T02:28:54.292Z,15.10
2022-09-01T02:31:23.969Z,15.00
2022-09-01T02:33:54.352Z,15.00
2022-09-01T02:36:25.032Z,15.00
2022-09-01T02:38:55.414Z,15.00
2022-09-01T02:41:29.080Z,15.00
2022-09-01T02:43:57.668Z,14.90
2022-09-01T02:46:26.136Z,14.90
2022-09-01T02:48:54.536Z,14.90
2022-09-01T02:51:25.817Z,14.90
2022-09-01T02:53:54.957Z,14.90
2022-09-01T02:56:27.311Z,14.90
2022-09-01T02:58:56.493Z,14.80
2022-09-01T03:01:29.324Z,14.80
2022-09-01T03:03:59.988Z,14.80
2022-09-01T03:06:28.803Z,14.80
2022-09-01T03:08:59.031Z,14.70
2022-09-01T03:11:29.866Z,14.80
2022-09-01T03:13:58.244Z,14.70
2022-09-01T03:16:26.226Z,14.70
2022-09-01T03:18:54.639Z,14.70
2022-09-01T03:21:23.312Z,14.70
2022-09-01T03:23:53.225Z,14.70
2022-09-01T03:26:22.771Z,14.70
2022-09-01T03:28:53.098Z,14.70
2022-09-01T03:31:22.600Z,14.70
2022-09-01T03:33:51.209Z,14.70
2022-09-01T03:36:20.107Z,14.70
2022-09-01T03:38:49.730Z,14.70
2022-09-01T03:41:21.455Z,14.60
2022-09-01T03:43:51.432Z,14.60
2022-09-01T03:46:21.562Z,14.60
2022-09-01T03:48:51.493Z,14.60
2022-09-01T03:51:22.832Z,14.60
2022-09-01T03:53:54.493Z,14.60
2022-09-01T03:56:24.590Z,14.60
2022-09-01T03:58:54.846Z,14.60
2022-09-01T04:01:23.060Z,14.50
2022-09-01T04:03:52.924Z,14.60
2022-09-01T04:06:24.216Z,14.50
2022-09-01T04:08:57.646Z,14.50
2022-09-01T04:11:26.387Z,14.50
2022-09-01T04:13:55.673Z,14.60
2022-09-01T04:16:43.838Z,14.60
2022-09-01T04:19:20.426Z,14.60
2022-09-01T04:21:50.814Z,14.50
2022-09-01T04:24:19.885Z,14.50
2022-09-01T04:26:49.593Z,14.60
2022-09-01T04:29:24.145Z,14.50
2022-09-01T04:31:53.563Z,14.50
2022-09-01T04:34:22.636Z,14.50
2022-09-01T04:36:54.210Z,14.50
2022-09-01T04:39:23.163Z,14.50
2022-09-01T04:41:51.328Z,14.50
2022-09-01T04:44:20.661Z,14.50
2022-09-01T04:46:50.725Z,14.50
2022-09-01T04:49:22.236Z,14.40
2022-09-01T04:51:53.957Z,14.50
2022-09-01T04:54:23.295Z,14.50
2022-09-01T04:56:52.815Z,14.50
2022-09-01T04:59:27.035Z,14.50
2022-09-01T05:01:57.398Z,14.50
2022-09-01T05:04:28.119Z,14.50
2022-09-01T05:06:59.796Z,14.50
2022-09-01T05:09:29.903Z,14.50
2022-09-01T05:11:58.601Z,14.50
2022-09-01T05:14:27.873Z,14.50
2022-09-01T05:16:58.826Z,14.50
2022-09-01T05:19:29.581Z,14.50
2022-09-01T05:21:59.829Z,14.50
2022-09-01T05:24:30.350Z,14.50
2022-09-01T05:26:58.937Z,14.50
2022-09-01T05:29:29.618Z,14.50
2022-09-01T05:31:58.668Z,14.50
2022-09-01T05:34:27.437Z,14.60
2022-09-01T05:36:58.001Z,14.50
2022-09-01T05:39:26.755Z,14.60
2022-09-01T05:41:54.887Z,14.60
2022-09-01T05:44:23.576Z,14.60
2022-09-01T05:46:53.608Z,14.60
2022-09-01T05:49:21.669Z,14.70
2022-09-01T05:51:52.209Z,14.70
2022-09-01T05:54:23.127Z,14.80
2022-09-01T05:56:53.454Z,14.80
2022-09-01T05:59:24.819Z,14.90
2022-09-01T06:01:55.505Z,14.90
2022-09-01T06:04:25.269Z,15.00
2022-09-01T06:07:10.901Z,15.10
2022-09-01T06:09:42.476Z,15.10
2022-09-01T06:12:17.233Z,15.20
2022-09-01T06:14:46.161Z,15.30
2022-09-01T06:17:16.903Z,15.30
2022-09-01T06:19:45.924Z,15.40
2022-09-01T06:22:13.836Z,15.40
2022-09-01T06:24:44.967Z,15.50
2022-09-01T06:27:20.243Z,15.60
2022-09-01T06:29:51.632Z,15.70
2022-09-01T06:32:21.056Z,15.70
2022-09-01T06:34:51.139Z,15.80
2022-09-01T06:37:22.646Z,15.90
2022-09-01T06:39:51.724Z,16.00
2022-09-01T06:42:20.100Z,16.00
2022-09-01T06:44:48.241Z,16.10
2022-09-01T06:47:16.437Z,16.20
2022-09-01T06:49:45.661Z,16.30
2022-09-01T06:52:13.798Z,16.40
2022-09-01T06:54:43.878Z,16.40
2022-09-01T07:00:00.238Z,16.50
2022-09-01T07:02:30.275Z,16.60
2022-09-01T07:05:02.703Z,16.70
2022-09-01T07:10:23.526Z,16.90
2022-09-01T07:13:08.957Z,17.10
2022-09-01T07:18:30.929Z,17.50
2022-09-01T07:21:07.408Z,17.70
2022-09-01T07:24:10.311Z,18.00
2022-09-01T07:26:46.807Z,18.20
2022-09-01T07:29:28.404Z,18.40
2022-09-01T07:34:47.500Z,18.80
2022-09-01T07:45:31.134Z,19.20
2022-09-01T07:48:03.056Z,19.40
2022-09-01T07:53:23.347Z,19.90
2022-09-01T07:55:52.587Z,20.40
2022-09-01T07:58:22.031Z,20.60
2022-09-01T08:00:51.211Z,20.90
2022-09-01T08:03:22.106Z,21.30
2022-09-01T08:05:53.674Z,21.70
2022-09-01T08:08:28.374Z,22.20
2022-09-01T08:11:04.943Z,22.40
2022-09-01T08:13:38.832Z,22.90
2022-09-01T08:16:16.804Z,23.20
2022-09-01T08:18:48.840Z,23.40
2022-09-01T08:21:18.585Z,23.70
2022-09-01T08:23:47.901Z,24.00
2022-09-01T08:26:17.517Z,24.20
2022-09-01T08:28:46.202Z,24.40
2022-09-01T08:31:17.440Z,24.70
2022-09-01T08:33:47.446Z,24.90
2022-09-01T08:36:21.586Z,25.10
2022-09-01T08:38:53.965Z,25.40
2022-09-01T08:41:35.320Z,25.50
2022-09-01T08:44:11.227Z,25.30
2022-09-01T08:46:43.441Z,24.90
2022-09-01T08:49:25.119Z,24.70
2022-09-01T08:52:00.949Z,24.70
2022-09-01T08:54:38.173Z,24.60
2022-09-01T08:57:10.941Z,24.30
2022-09-01T08:59:39.234Z,24.20
2022-09-01T09:02:22.460Z,24.10
2022-09-01T09:05:00.655Z,24.10
2022-09-01T09:07:47.420Z,24.10
2022-09-01T09:10:20.563Z,23.80
2022-09-01T09:13:03.190Z,23.80
2022-09-01T09:15:39.992Z,24.00
2022-09-01T09:18:20.241Z,23.90
2022-09-01T09:21:12.965Z,23.80
2022-09-01T09:23:44.729Z,23.70
2022-09-01T09:26:16.558Z,23.70
2022-09-01T09:28:49.856Z,23.60
2022-09-01T09:31:29.422Z,23.70
2022-09-01T09:33:58.448Z,23.70
2022-09-01T09:36:32.676Z,23.60
2022-09-01T09:39:10.461Z,23.40
2022-09-01T09:41:40.669Z,23.10
2022-09-01T09:44:22.841Z,22.80
2022-09-01T09:46:51.707Z,22.80
2022-09-01T09:49:36.048Z,23.20
2022-09-01T09:52:16.818Z,23.60
2022-09-01T09:55:01.245Z,23.80
2022-09-01T09:57:31.749Z,24.00
2022-09-01T10:00:04.017Z,24.20
2022-09-01T10:02:35.409Z,24.50
2022-09-01T10:05:24.673Z,24.90
2022-09-01T10:07:53.926Z,25.00
2022-09-01T10:10:38.769Z,25.10
2022-09-01T10:13:12.385Z,25.20
2022-09-01T10:15:42.327Z,25.70
2022-09-01T10:18:32.012Z,25.90
2022-09-01T10:21:04.318Z,26.10
2022-09-01T10:23:36.916Z,26.40
2022-09-01T10:26:10.510Z,26.30
2022-09-01T10:28:49.606Z,26.40
2022-09-01T10:31:19.892Z,26.30
2022-09-01T10:33:48.514Z,26.00
2022-09-01T10:36:17.820Z,26.20
2022-09-01T10:38:52.673Z,26.30
2022-09-01T10:41:46.824Z,26.20
2022-09-01T10:44:21.492Z,25.70
2022-09-01T10:46:51.513Z,25.30
2022-09-01T10:50:06.993Z,25.30
2022-09-01T10:53:00.173Z,25.00
2022-09-01T10:55:42.656Z,25.00
2022-09-01T11:02:28.805Z,25.80
2022-09-01T11:05:14.780Z,26.00
2022-09-01T11:08:01.473Z,25.40
2022-09-01T11:10:52.185Z,25.40
2022-09-01T11:13:34.575Z,25.50
2022-09-01T11:16:50.059Z,25.40
2022-09-01T11:19:42.000Z,25.90
2022-09-01T11:22:26.288Z,25.70
2022-09-01T11:25:39.848Z,25.70
2022-09-01T11:28:31.209Z,25.40
2022-09-01T11:31:01.980Z,24.80
2022-09-01T11:33:43.643Z,24.40
2022-09-01T11:36:23.723Z,24.40
2022-09-01T11:38:57.493Z,24.80
2022-09-01T11:41:43.682Z,25.30
2022-09-01T11:44:16.218Z,25.50
2022-09-01T11:46:44.296Z,25.70
2022-09-01T11:49:29.091Z,26.00
2022-09-01T11:52:00.372Z,26.70
2022-09-01T11:54:29.478Z,27.60
2022-09-01T11:56:57.388Z,28.00
2022-09-01T11:59:33.900Z,28.10
2022-09-01T12:02:04.047Z,28.30
2022-09-01T12:04:36.232Z,28.20
2022-09-01T12:07:10.746Z,27.60
2022-09-01T12:09:42.785Z,27.00
2022-09-01T12:12:29.305Z,26.90
2022-09-01T12:15:05.648Z,26.90
2022-09-01T12:17:34.518Z,26.80
2022-09-01T12:20:20.381Z,26.40
2022-09-01T12:22:49.829Z,26.50
2022-09-01T12:25:22.832Z,26.60
2022-09-01T12:27:51.625Z,26.90
2022-09-01T12:30:20.983Z,27.10
2022-09-01T12:32:49.728Z,27.10
2022-09-01T12:35:23.675Z,26.90
2022-09-01T12:37:53.081Z,26.70
2022-09-01T12:40:25.887Z,26.40
2022-09-01T12:42:55.149Z,26.00
2022-09-01T12:45:48.146Z,26.00
2022-09-01T12:48:26.418Z,26.40
2022-09-01T12:50:56.130Z,26.30
2022-09-01T12:53:30.538Z,26.20
2022-09-01T12:56:06.036Z,26.10
2022-09-01T12:58:35.067Z,26.00
2022-09-01T13:01:05.755Z,25.90
2022-09-01T13:03:37.000Z,25.60
2022-09-01T13:06:05.613Z,25.40
2022-09-01T13:08:37.612Z,25.20
2022-09-01T13:11:08.407Z,24.90
2022-09-01T13:13:37.367Z,24.90
2022-09-01T13:16:12.380Z,24.90
2022-09-01T13:21:30.186Z,24.90
2022-09-01T13:24:00.648Z,24.90
2022-09-01T13:26:31.271Z,25.00
2022-09-01T13:28:59.876Z,25.10
2022-09-01T13:31:30.300Z,25.10
2022-09-01T13:34:22.948Z,25.20
2022-09-01T13:36:51.590Z,25.20
2022-09-01T13:39:23.007Z,25.30
2022-09-01T13:41:51.020Z,25.20
2022-09-01T13:44:19.483Z,25.50
2022-09-01T13:49:44.998Z,26.30
2022-09-01T13:52:23.723Z,26.20
2022-09-01T13:54:53.278Z,26.00
2022-09-01T13:57:21.235Z,25.90
2022-09-01T13:59:49.121Z,25.80
2022-09-01T14:02:17.367Z,25.70
2022-09-01T14:04:46.391Z,25.70
2022-09-01T14:07:16.044Z,25.50
2022-09-01T14:09:44.193Z,25.30
2022-09-01T14:12:17.934Z,25.30
2022-09-01T14:17:33.738Z,25.20
2022-09-01T14:20:01.979Z,25.30
2022-09-01T14:22:30.300Z,25.30
2022-09-01T14:24:59.895Z,25.20
2022-09-01T14:27:29.654Z,25.10
2022-09-01T14:29:57.591Z,25.10
2022-09-01T14:32:27.276Z,25.00
2022-09-01T14:34:56.308Z,25.00
2022-09-01T14:37:24.754Z,25.00
2022-09-01T14:39:53.054Z,25.10
2022-09-01T14:42:21.608Z,25.30
2022-09-01T14:44:50.869Z,25.50
2022-09-01T14:47:20.724Z,25.70
2022-09-01T14:49:48.934Z,25.70
2022-09-01T14:52:17.990Z,25.80
2022-09-01T14:54:45.931Z,25.90
2022-09-01T14:57:36.592Z,26.10
2022-09-01T15:00:05.435Z,26.20
2022-09-01T15:02:33.339Z,26.10
2022-09-01T15:05:01.304Z,26.00
2022-09-01T15:07:30.532Z,25.90
2022-09-01T15:09:58.986Z,25.60
2022-09-01T15:12:30.844Z,25.40
2022-09-01T15:14:58.832Z,25.30
2022-09-01T15:17:28.443Z,25.30
2022-09-01T15:20:16.898Z,25.10
2022-09-01T15:22:44.812Z,25.10
2022-09-01T15:25:12.736Z,25.00
2022-09-01T15:27:41.529Z,24.90
2022-09-01T15:30:14.501Z,24.90
2022-09-01T15:32:44.664Z,24.90
2022-09-01T15:35:13.473Z,24.80
2022-09-01T15:37:41.515Z,24.70
2022-09-01T15:40:11.007Z,24.50
2022-09-01T15:42:39.775Z,24.50
2022-09-01T15:45:10.226Z,24.50
2022-09-01T15:47:41.305Z,24.50
2022-09-01T15:50:21.403Z,24.50
2022-09-01T15:52:53.009Z,24.50
2022-09-01T15:55:23.521Z,24.60
2022-09-01T15:57:52.429Z,24.50
2022-09-01T16:00:25.542Z,24.50
2022-09-01T16:02:56.430Z,24.50
2022-09-01T16:05:26.717Z,24.40
2022-09-01T16:10:30.375Z,24.30
2022-09-01T16:13:01.451Z,24.30
2022-09-01T16:15:29.710Z,24.30
2022-09-01T16:18:15.190Z,24.30
2022-09-01T16:20:55.427Z,24.30
2022-09-01T16:23:25.380Z,24.30
2022-09-01T16:25:54.661Z,24.30
2022-09-01T16:28:27.415Z,24.20
2022-09-01T16:31:00.258Z,24.20
2022-09-01T16:33:28.503Z,24.10
2022-09-01T16:36:10.920Z,24.10
2022-09-01T16:38:47.467Z,24.10
2022-09-01T16:41:28.432Z,24.00
2022-09-01T16:44:06.855Z,24.00
2022-09-01T16:46:43.130Z,24.00
2022-09-01T16:49:21.967Z,24.00
2022-09-01T16:52:01.937Z,24.00
2022-09-01T16:54:39.728Z,24.00
2022-09-01T16:57:14.856Z,24.00
2022-09-01T16:59:53.224Z,23.90
2022-09-01T17:02:38.362Z,23.90
2022-09-01T17:05:17.953Z,23.80
2022-09-01T17:07:53.362Z,23.80
2022-09-01T17:10:34.588Z,23.70
2022-09-01T17:13:15.746Z,23.60
2022-09-01T17:15:48.076Z,23.60
2022-09-01T17:18:22.591Z,23.60
2022-09-01T17:20:58.119Z,23.50
2022-09-01T17:23:32.248Z,23.40
2022-09-01T17:26:05.553Z,23.30
2022-09-01T17:28:37.649Z,23.20
2022-09-01T17:31:14.259Z,23.20
2022-09-01T17:33:57.576Z,23.20
2022-09-01T17:36:46.852Z,23.20
2022-09-01T17:39:29.129Z,23.10
2022-09-01T17:42:01.040Z,23.00
2022-09-01T17:44:37.164Z,23.00
2022-09-01T17:47:12.627Z,22.90
2022-09-01T17:49:51.748Z,22.80
2022-09-01T17:52:29.056Z,22.80
2022-09-01T17:55:03.722Z,22.60
2022-09-01T17:57:38.235Z,22.50
2022-09-01T18:00:09.538Z,22.40
2022-09-01T18:03:07.495Z,22.30
2022-09-01T18:05:41.294Z,22.20
2022-09-01T18:08:30.026Z,22.20
2022-09-01T18:11:03.036Z,22.10
2022-09-01T18:13:52.319Z,22.10
2022-09-01T18:16:24.594Z,22.00
2022-09-01T18:18:53.309Z,21.90
2022-09-01T18:21:24.374Z,21.90
2022-09-01T18:23:56.466Z,21.80
2022-09-01T18:26:29.701Z,21.80
2022-09-01T18:28:58.313Z,21.60
2022-09-01T18:32:05.935Z,21.60
2022-09-01T18:34:52.480Z,21.50
2022-09-01T18:37:29.918Z,21.50
2022-09-01T18:40:07.217Z,21.30
2022-09-01T18:42:45.508Z,21.30
2022-09-01T18:45:29.331Z,21.20
2022-09-01T18:48:07.534Z,21.20
2022-09-01T18:50:45.640Z,21.10
2022-09-01T18:53:25.386Z,21.10
2022-09-01T18:56:01.719Z,21.00
2022-09-01T18:58:51.083Z,21.00
2022-09-01T19:01:29.931Z,21.00
2022-09-01T19:04:10.397Z,20.90
2022-09-01T19:06:48.268Z,20.80
2022-09-01T19:09:22.622Z,20.70
2022-09-01T19:12:00.677Z,20.60
2022-09-01T19:14:40.158Z,20.60
2022-09-01T19:17:24.555Z,20.60
2022-09-01T19:19:58.717Z,20.70
2022-09-01T19:22:36.526Z,20.80
2022-09-01T19:25:26.114Z,20.70
2022-09-01T19:27:59.117Z,20.70
2022-09-01T19:30:28.579Z,20.80
2022-09-01T19:32:59.345Z,20.80
2022-09-01T19:35:29.220Z,20.80
2022-09-01T19:37:57.160Z,20.80
2022-09-01T19:40:32.319Z,20.80
2022-09-01T19:43:07.704Z,20.80
2022-09-01T19:45:47.139Z,20.80
2022-09-01T19:48:22.139Z,20.90
2022-09-01T19:50:54.204Z,20.90
2022-09-01T19:53:32.922Z,20.80
2022-09-01T19:56:08.806Z,20.90
2022-09-01T19:58:46.482Z,20.80
2022-09-01T20:01:23.690Z,20.80
2022-09-01T20:03:57.079Z,20.70
2022-09-01T20:06:33.455Z,20.70
2022-09-01T20:09:08.123Z,20.70
2022-09-01T20:11:47.283Z,20.60
2022-09-01T20:14:53.960Z,20.60
2022-09-01T20:17:28.004Z,20.60
2022-09-01T20:20:02.121Z,20.40
2022-09-01T20:22:36.288Z,20.30
2022-09-01T20:25:09.736Z,20.10
2022-09-01T20:27:56.071Z,20.00
2022-09-01T20:30:25.831Z,20.00
2022-09-01T20:33:01.083Z,20.00
2022-09-01T20:35:39.212Z,20.00
2022-09-01T20:38:33.340Z,19.90
2022-09-01T20:41:05.916Z,19.70
2022-09-01T20:43:40.426Z,19.50
2022-09-01T20:46:08.413Z,19.40
2022-09-01T20:48:40.769Z,19.30
2022-09-01T20:51:13.541Z,19.20
2022-09-01T20:54:02.389Z,19.20
2022-09-01T20:56:40.569Z,19.20
2022-09-01T20:59:18.747Z,19.10
2022-09-01T21:01:50.890Z,19.00
2022-09-01T21:04:37.008Z,19.00
2022-09-01T21:07:10.494Z,19.00
2022-09-01T21:09:49.712Z,18.90
2022-09-01T21:12:27.019Z,19.00
2022-09-01T21:15:03.392Z,19.00
2022-09-01T21:17:42.016Z,18.90
2022-09-01T21:20:18.958Z,18.90
2022-09-01T21:22:46.904Z,18.90
2022-09-01T21:25:15.208Z,18.80
2022-09-01T21:27:48.719Z,18.80
2022-09-01T21:30:17.247Z,18.80
2022-09-01T21:32:45.872Z,18.80
2022-09-01T21:35:18.371Z,18.70
2022-09-01T21:37:46.486Z,18.70
2022-09-01T21:40:15.843Z,18.60
2022-09-01T21:42:48.333Z,18.60
2022-09-01T21:45:18.245Z,18.60
2022-09-01T21:47:48.073Z,18.50
2022-09-01T21:50:19.114Z,18.50
2022-09-01T21:52:47.126Z,18.40
2022-09-01T21:55:20.700Z,18.40
2022-09-01T21:57:50.551Z,18.30
2022-09-01T22:00:22.837Z,18.20
2022-09-01T22:02:51.072Z,18.20
2022-09-01T22:05:20.918Z,18.10
2022-09-01T22:07:49.341Z,18.00
2022-09-01T22:10:20.884Z,18.00
2022-09-01T22:12:51.157Z,17.90
2022-09-01T22:15:22.368Z,17.90
2022-09-01T22:17:50.905Z,17.80
2022-09-01T22:20:23.547Z,17.80
2022-09-01T22:22:51.742Z,17.70
2022-09-01T22:25:23.728Z,17.60
2022-09-01T22:27:51.714Z,17.60
2022-09-01T22:30:20.122Z,17.50
2022-09-01T22:32:48.086Z,17.40
2022-09-01T22:35:18.222Z,17.30
2022-09-01T22:37:48.108Z,17.10
2022-09-01T22:40:17.129Z,17.00
2022-09-01T22:42:45.613Z,16.90
2022-09-01T22:45:14.925Z,16.80
2022-09-01T22:47:42.818Z,16.70
2022-09-01T22:50:11.672Z,16.70
2022-09-01T22:52:40.188Z,16.70
2022-09-01T22:55:10.814Z,16.70
2022-09-01T22:57:38.786Z,16.60
2022-09-01T23:00:09.781Z,16.60
2022-09-01T23:02:38.343Z,16.60
2022-09-01T23:05:07.550Z,16.60
2022-09-01T23:07:37.645Z,16.60
2022-09-01T23:10:10.374Z,16.50
2022-09-01T23:12:38.372Z,16.30
2022-09-01T23:15:07.429Z,16.10
2022-09-01T23:17:36.670Z,16.00
2022-09-01T23:20:06.097Z,16.00
2022-09-01T23:22:34.188Z,15.90
2022-09-01T23:25:02.267Z,15.80
2022-09-01T23:27:31.963Z,15.80
2022-09-01T23:30:00.049Z,15.80
2022-09-01T23:32:28.131Z,15.80
2022-09-01T23:34:56.047Z,15.80
2022-09-01T23:37:24.006Z,15.80
2022-09-01T23:39:53.347Z,15.80
2022-09-01T23:42:21.460Z,15.80
2022-09-01T23:44:51.203Z,15.80
2022-09-01T23:47:19.537Z,15.80
2022-09-01T23:49:47.457Z,15.80
2022-09-01T23:52:16.071Z,15.70
2022-09-01T23:54:44.169Z,15.60
2022-09-01T23:57:12.733Z,15.50
2022-09-01T23:59:40.702Z,15.40
